sensor_id;sensor_type;location;lat;lon;timestamp;temperature;humidity
43524;DHT22;29120;52.006;6.020;2023-05-07T00:01:18;16.00;99.90
43524;DHT22;29120;52.006;6.020;2023-05-07T00:03:43;15.90;99.90
43524;DHT22;29120;52.006;6.020;2023-05-07T00:06:09;15.90;99.90
43524;DHT22;29120;52.006;6.020;2023-05-07T00:08:38;15.90;99.90
43524;DHT22;29120;52.006;6.020;2023-05-07T00:11:03;15.90;99.90
43524;DHT22;29120;52.006;6.020;2023-05-07T00:13:29;15.90;99.90
43524;DHT22;29120;52.006;6.020;2023-05-07T00:16:01;15.90;99.90
43524;DHT22;29120;52.006;6.020;2023-05-07T00:18:26;15.90;99.90
43524;DHT22;29120;52.006;6.020;2023-05-07T00:20:52;15.90;99.90
43524;DHT22;29120;52.006;6.020;2023-05-07T00:23:17;15.90;99.90
43524;DHT22;29120;52.006;6.020;2023-05-07T00:25:43;15.90;99.90
43524;DHT22;29120;52.006;6.020;2023-05-07T00:28:08;15.80;99.90
43524;DHT22;29120;52.006;6.020;2023-05-07T00:30:33;15.80;99.90
43524;DHT22;29120;52.006;6.020;2023-05-07T00:32:59;15.80;99.90
43524;DHT22;29120;52.006;6.020;2023-05-07T00:35:25;15.80;99.90
43524;DHT22;29120;52.006;6.020;2023-05-07T00:37:50;15.80;99.90
43524;DHT22;29120;52.006;6.020;2023-05-07T00:40:15;15.70;99.90
43524;DHT22;29120;52.006;6.020;2023-05-07T00:42:41;15.70;99.90
43524;DHT22;29120;52.006;6.020;2023-05-07T00:45:07;15.70;99.90
43524;DHT22;29120;52.006;6.020;2023-05-07T00:47:33;15.60;99.90
43524;DHT22;29120;52.006;6.020;2023-05-07T00:49:58;15.50;99.90
43524;DHT22;29120;52.006;6.020;2023-05-07T00:52:24;15.50;99.90
43524;DHT22;29120;52.006;6.020;2023-05-07T00:54:50;15.50;99.90
43524;DHT22;29120;52.006;6.020;2023-05-07T00:57:16;15.40;99.90
43524;DHT22;29120;52.006;6.020;2023-05-07T00:59:42;15.40;99.90
43524;DHT22;29120;52.006;6.020;2023-05-07T01:02:07;15.40;99.90
43524;DHT22;29120;52.006;6.020;2023-05-07T01:04:33;15.30;99.90
43524;DHT22;29120;52.006;6.020;2023-05-07T01:06:59;15.30;99.90
43524;DHT22;29120;52.006;6.020;2023-05-07T01:09:25;15.30;99.90
43524;DHT22;29120;52.006;6.020;2023-05-07T01:11:51;15.20;99.90
43524;DHT22;29120;52.006;6.020;2023-05-07T01:14:17;15.10;99.90
43524;DHT22;29120;52.006;6.020;2023-05-07T01:16:42;15.10;99.90
43524;DHT22;29120;52.006;6.020;2023-05-07T01:19:08;15.00;99.90
43524;DHT22;29120;52.006;6.020;2023-05-07T01:21:36;15.00;99.90
43524;DHT22;29120;52.006;6.020;2023-05-07T01:24:02;15.10;99.90
43524;DHT22;29120;52.006;6.020;2023-05-07T01:26:28;15.00;99.90
43524;DHT22;29120;52.006;6.020;2023-05-07T01:28:53;15.00;99.90
43524;DHT22;29120;52.006;6.020;2023-05-07T01:31:19;15.00;99.90
43524;DHT22;29120;52.006;6.020;2023-05-07T01:33:45;14.90;99.90
43524;DHT22;29120;52.006;6.020;2023-05-07T01:36:11;14.90;99.90
43524;DHT22;29120;52.006;6.020;2023-05-07T01:38:38;14.90;99.90
43524;DHT22;29120;52.006;6.020;2023-05-07T01:41:04;14.90;99.90
43524;DHT22;29120;52.006;6.020;2023-05-07T01:43:30;14.90;99.90
43524;DHT22;29120;52.006;6.020;2023-05-07T01:45:55;14.90;99.90
43524;DHT22;29120;52.006;6.020;2023-05-07T01:48:22;15.00;99.90
43524;DHT22;29120;52.006;6.020;2023-05-07T01:50:48;14.90;99.90
43524;DHT22;29120;52.006;6.020;2023-05-07T01:53:13;14.90;99.90
43524;DHT22;29120;52.006;6.020;2023-05-07T01:55:39;14.90;99.90
43524;DHT22;29120;52.006;6.020;2023-05-07T01:58:07;15.00;99.90
43524;DHT22;29120;52.006;6.020;2023-05-07T02:00:32;15.00;99.90
43524;DHT22;29120;52.006;6.020;2023-05-07T02:02:58;14.90;99.90
43524;DHT22;29120;52.006;6.020;2023-05-07T02:05:23;14.90;99.90
43524;DHT22;29120;52.006;6.020;2023-05-07T02:07:49;15.00;99.90
43524;DHT22;29120;52.006;6.020;2023-05-07T02:10:14;15.00;99.90
43524;DHT22;29120;52.006;6.020;2023-05-07T02:12:40;15.00;99.90
43524;DHT22;29120;52.006;6.020;2023-05-07T02:15:05;15.00;99.90
43524;DHT22;29120;52.006;6.020;2023-05-07T02:17:31;15.00;99.90
43524;DHT22;29120;52.006;6.020;2023-05-07T02:19:58;15.00;99.90
43524;DHT22;29120;52.006;6.020;2023-05-07T02:22:23;15.00;99.90
43524;DHT22;29120;52.006;6.020;2023-05-07T02:24:49;14.90;99.90
43524;DHT22;29120;52.006;6.020;2023-05-07T02:27:14;14.90;99.90
43524;DHT22;29120;52.006;6.020;2023-05-07T02:29:40;14.90;99.90
43524;DHT22;29120;52.006;6.020;2023-05-07T02:32:05;14.90;99.90
43524;DHT22;29120;52.006;6.020;2023-05-07T02:34:31;14.90;99.90
43524;DHT22;29120;52.006;6.020;2023-05-07T02:36:56;15.00;99.90
43524;DHT22;29120;52.006;6.020;2023-05-07T02:39:22;15.00;99.90
43524;DHT22;29120;52.006;6.020;2023-05-07T02:41:47;15.00;99.90
43524;DHT22;29120;52.006;6.020;2023-05-07T02:44:13;15.00;99.90
43524;DHT22;29120;52.006;6.020;2023-05-07T02:46:38;15.00;99.90
43524;DHT22;29120;52.006;6.020;2023-05-07T02:49:04;15.00;99.90
43524;DHT22;29120;52.006;6.020;2023-05-07T02:51:29;15.00;99.90
43524;DHT22;29120;52.006;6.020;2023-05-07T02:53:55;15.00;99.90
43524;DHT22;29120;52.006;6.020;2023-05-07T02:56:21;15.00;99.90
43524;DHT22;29120;52.006;6.020;2023-05-07T02:58:47;15.00;99.90
43524;DHT22;29120;52.006;6.020;2023-05-07T03:01:12;15.00;99.90
43524;DHT22;29120;52.006;6.020;2023-05-07T03:03:39;15.00;99.90
43524;DHT22;29120;52.006;6.020;2023-05-07T03:06:04;15.00;99.90
43524;DHT22;29120;52.006;6.020;2023-05-07T03:08:30;15.00;99.90
43524;DHT22;29120;52.006;6.020;2023-05-07T03:10:55;15.00;99.90
43524;DHT22;29120;52.006;6.020;2023-05-07T03:13:21;15.00;99.90
43524;DHT22;29120;52.006;6.020;2023-05-07T03:15:46;15.00;99.90
43524;DHT22;29120;52.006;6.020;2023-05-07T03:18:12;15.00;99.90
43524;DHT22;29120;52.006;6.020;2023-05-07T03:20:37;15.00;99.90
43524;DHT22;29120;52.006;6.020;2023-05-07T03:23:03;15.00;99.90
43524;DHT22;29120;52.006;6.020;2023-05-07T03:25:28;15.00;99.90
43524;DHT22;29120;52.006;6.020;2023-05-07T03:27:55;15.00;99.90
43524;DHT22;29120;52.006;6.020;2023-05-07T03:30:20;15.00;99.90
43524;DHT22;29120;52.006;6.020;2023-05-07T03:32:46;15.00;99.90
43524;DHT22;29120;52.006;6.020;2023-05-07T03:35:11;15.00;99.90
43524;DHT22;29120;52.006;6.020;2023-05-07T03:37:37;15.00;99.90
43524;DHT22;29120;52.006;6.020;2023-05-07T03:40:03;15.00;99.90
43524;DHT22;29120;52.006;6.020;2023-05-07T03:42:29;15.00;99.90
43524;DHT22;29120;52.006;6.020;2023-05-07T03:44:54;15.00;99.90
43524;DHT22;29120;52.006;6.020;2023-05-07T03:47:20;14.90;99.90
43524;DHT22;29120;52.006;6.020;2023-05-07T03:49:45;14.90;99.90
43524;DHT22;29120;52.006;6.020;2023-05-07T03:52:10;14.90;99.90
43524;DHT22;29120;52.006;6.020;2023-05-07T03:54:36;14.90;99.90
43524;DHT22;29120;52.006;6.020;2023-05-07T03:57:01;14.90;99.90
43524;DHT22;29120;52.006;6.020;2023-05-07T03:59:27;14.90;99.90
43524;DHT22;29120;52.006;6.020;2023-05-07T04:01:52;14.80;99.90
43524;DHT22;29120;52.006;6.020;2023-05-07T04:04:18;14.80;99.90
43524;DHT22;29120;52.006;6.020;2023-05-07T04:06:43;14.80;99.90
43524;DHT22;29120;52.006;6.020;2023-05-07T04:09:09;14.80;99.90
43524;DHT22;29120;52.006;6.020;2023-05-07T04:11:35;14.80;99.90
43524;DHT22;29120;52.006;6.020;2023-05-07T04:14:00;14.80;99.90
43524;DHT22;29120;52.006;6.020;2023-05-07T04:16:26;14.80;99.90
43524;DHT22;29120;52.006;6.020;2023-05-07T04:18:51;14.80;99.90
43524;DHT22;29120;52.006;6.020;2023-05-07T04:21:17;14.90;99.90
43524;DHT22;29120;52.006;6.020;2023-05-07T04:23:43;14.90;99.90
43524;DHT22;29120;52.006;6.020;2023-05-07T04:26:08;14.90;99.90
43524;DHT22;29120;52.006;6.020;2023-05-07T04:28:34;15.00;99.90
43524;DHT22;29120;52.006;6.020;2023-05-07T04:30:59;15.00;99.90
43524;DHT22;29120;52.006;6.020;2023-05-07T04:33:25;15.00;99.90
43524;DHT22;29120;52.006;6.020;2023-05-07T04:35:51;15.00;99.90
43524;DHT22;29120;52.006;6.020;2023-05-07T04:38:16;15.00;99.90
43524;DHT22;29120;52.006;6.020;2023-05-07T04:40:43;15.00;99.90
43524;DHT22;29120;52.006;6.020;2023-05-07T04:43:09;15.00;99.90
43524;DHT22;29120;52.006;6.020;2023-05-07T04:45:35;15.10;99.90
43524;DHT22;29120;52.006;6.020;2023-05-07T04:48:00;15.10;99.90
43524;DHT22;29120;52.006;6.020;2023-05-07T04:50:26;15.10;99.90
43524;DHT22;29120;52.006;6.020;2023-05-07T04:52:51;15.10;99.90
43524;DHT22;29120;52.006;6.020;2023-05-07T04:55:17;15.10;99.90
43524;DHT22;29120;52.006;6.020;2023-05-07T04:57:42;15.00;99.90
43524;DHT22;29120;52.006;6.020;2023-05-07T05:00:08;15.00;99.90
43524;DHT22;29120;52.006;6.020;2023-05-07T05:02:34;15.00;99.90
43524;DHT22;29120;52.006;6.020;2023-05-07T05:05:00;15.10;99.90
43524;DHT22;29120;52.006;6.020;2023-05-07T05:07:26;15.10;99.90
43524;DHT22;29120;52.006;6.020;2023-05-07T05:09:52;15.10;99.90
43524;DHT22;29120;52.006;6.020;2023-05-07T05:12:17;15.10;99.90
43524;DHT22;29120;52.006;6.020;2023-05-07T05:14:43;15.00;99.90
43524;DHT22;29120;52.006;6.020;2023-05-07T05:17:08;15.10;99.90
43524;DHT22;29120;52.006;6.020;2023-05-07T05:19:33;15.10;99.90
43524;DHT22;29120;52.006;6.020;2023-05-07T05:21:59;15.10;99.90
43524;DHT22;29120;52.006;6.020;2023-05-07T05:24:26;15.10;99.90
43524;DHT22;29120;52.006;6.020;2023-05-07T05:26:53;15.20;99.90
43524;DHT22;29120;52.006;6.020;2023-05-07T05:29:18;15.20;99.90
43524;DHT22;29120;52.006;6.020;2023-05-07T05:31:44;15.20;99.90
43524;DHT22;29120;52.006;6.020;2023-05-07T05:34:09;15.30;99.90
43524;DHT22;29120;52.006;6.020;2023-05-07T05:36:34;15.30;99.90
43524;DHT22;29120;52.006;6.020;2023-05-07T05:39:00;15.40;99.90
43524;DHT22;29120;52.006;6.020;2023-05-07T05:41:25;15.40;99.90
43524;DHT22;29120;52.006;6.020;2023-05-07T05:43:51;15.30;99.90
43524;DHT22;29120;52.006;6.020;2023-05-07T05:46:16;15.30;99.90
43524;DHT22;29120;52.006;6.020;2023-05-07T05:48:42;15.30;99.90
43524;DHT22;29120;52.006;6.020;2023-05-07T05:51:07;15.40;99.90
43524;DHT22;29120;52.006;6.020;2023-05-07T05:53:33;15.40;99.90
43524;DHT22;29120;52.006;6.020;2023-05-07T05:55:58;15.40;99.90
43524;DHT22;29120;52.006;6.020;2023-05-07T05:58:24;15.40;99.90
43524;DHT22;29120;52.006;6.020;2023-05-07T06:00:49;15.50;99.90
43524;DHT22;29120;52.006;6.020;2023-05-07T06:03:17;15.50;99.90
43524;DHT22;29120;52.006;6.020;2023-05-07T06:05:43;15.50;99.90
43524;DHT22;29120;52.006;6.020;2023-05-07T06:08:08;15.50;99.90
43524;DHT22;29120;52.006;6.020;2023-05-07T06:10:35;15.50;99.90
43524;DHT22;29120;52.006;6.020;2023-05-07T06:13:00;15.60;99.90
43524;DHT22;29120;52.006;6.020;2023-05-07T06:15:26;15.60;99.90
43524;DHT22;29120;52.006;6.020;2023-05-07T06:17:51;15.50;99.90
43524;DHT22;29120;52.006;6.020;2023-05-07T06:20:17;15.50;99.90
43524;DHT22;29120;52.006;6.020;2023-05-07T06:22:42;15.50;99.90
43524;DHT22;29120;52.006;6.020;2023-05-07T06:25:08;15.60;99.90
43524;DHT22;29120;52.006;6.020;2023-05-07T06:27:33;15.60;99.90
43524;DHT22;29120;52.006;6.020;2023-05-07T06:29:59;15.50;99.90
43524;DHT22;29120;52.006;6.020;2023-05-07T06:32:24;15.50;99.90
43524;DHT22;29120;52.006;6.020;2023-05-07T06:34:50;15.60;99.90
43524;DHT22;29120;52.006;6.020;2023-05-07T06:37:15;15.60;99.90
43524;DHT22;29120;52.006;6.020;2023-05-07T06:39:41;15.60;99.90
43524;DHT22;29120;52.006;6.020;2023-05-07T06:42:06;15.60;99.90
43524;DHT22;29120;52.006;6.020;2023-05-07T06:44:32;15.70;99.90
43524;DHT22;29120;52.006;6.020;2023-05-07T06:46:57;15.60;99.90
43524;DHT22;29120;52.006;6.020;2023-05-07T06:49:23;15.80;99.90
43524;DHT22;29120;52.006;6.020;2023-05-07T06:51:48;15.80;99.90
43524;DHT22;29120;52.006;6.020;2023-05-07T06:54:13;15.80;99.90
43524;DHT22;29120;52.006;6.020;2023-05-07T06:56:39;15.90;99.90
43524;DHT22;29120;52.006;6.020;2023-05-07T06:59:05;15.80;99.90
43524;DHT22;29120;52.006;6.020;2023-05-07T07:01:31;15.90;99.90
43524;DHT22;29120;52.006;6.020;2023-05-07T07:03:56;16.00;99.90
43524;DHT22;29120;52.006;6.020;2023-05-07T07:06:22;16.10;99.90
43524;DHT22;29120;52.006;6.020;2023-05-07T07:08:47;16.10;99.90
43524;DHT22;29120;52.006;6.020;2023-05-07T07:11:13;16.10;99.90
43524;DHT22;29120;52.006;6.020;2023-05-07T07:13:38;16.10;99.90
43524;DHT22;29120;52.006;6.020;2023-05-07T07:16:05;16.10;99.90
43524;DHT22;29120;52.006;6.020;2023-05-07T07:18:30;16.20;99.90
43524;DHT22;29120;52.006;6.020;2023-05-07T07:20:56;16.20;99.90
43524;DHT22;29120;52.006;6.020;2023-05-07T07:23:21;16.30;99.90
43524;DHT22;29120;52.006;6.020;2023-05-07T07:25:47;16.40;99.90
43524;DHT22;29120;52.006;6.020;2023-05-07T07:28:13;16.50;99.90
43524;DHT22;29120;52.006;6.020;2023-05-07T07:30:38;16.50;99.90
43524;DHT22;29120;52.006;6.020;2023-05-07T07:33:04;16.50;99.90
43524;DHT22;29120;52.006;6.020;2023-05-07T07:35:30;16.60;99.90
43524;DHT22;29120;52.006;6.020;2023-05-07T07:37:56;16.60;99.90
43524;DHT22;29120;52.006;6.020;2023-05-07T07:40:22;16.70;99.90
43524;DHT22;29120;52.006;6.020;2023-05-07T07:42:47;16.80;99.90
43524;DHT22;29120;52.006;6.020;2023-05-07T07:45:13;16.80;99.90
43524;DHT22;29120;52.006;6.020;2023-05-07T07:47:41;16.80;99.90
43524;DHT22;29120;52.006;6.020;2023-05-07T07:50:06;16.80;99.90
43524;DHT22;29120;52.006;6.020;2023-05-07T07:52:32;16.90;99.90
43524;DHT22;29120;52.006;6.020;2023-05-07T07:54:58;16.90;99.90
43524;DHT22;29120;52.006;6.020;2023-05-07T07:57:23;16.90;99.90
43524;DHT22;29120;52.006;6.020;2023-05-07T07:59:49;16.90;99.90
43524;DHT22;29120;52.006;6.020;2023-05-07T08:02:14;16.90;99.90
43524;DHT22;29120;52.006;6.020;2023-05-07T08:04:40;17.00;99.90
43524;DHT22;29120;52.006;6.020;2023-05-07T08:07:05;17.00;99.90
43524;DHT22;29120;52.006;6.020;2023-05-07T08:09:31;17.10;99.90
43524;DHT22;29120;52.006;6.020;2023-05-07T08:11:57;17.10;99.90
43524;DHT22;29120;52.006;6.020;2023-05-07T08:14:22;17.10;99.90
43524;DHT22;29120;52.006;6.020;2023-05-07T08:16:48;17.20;99.90
43524;DHT22;29120;52.006;6.020;2023-05-07T08:19:13;17.30;99.90
43524;DHT22;29120;52.006;6.020;2023-05-07T08:21:39;17.30;99.90
43524;DHT22;29120;52.006;6.020;2023-05-07T08:24:04;17.40;99.90
43524;DHT22;29120;52.006;6.020;2023-05-07T08:26:30;17.40;99.90
43524;DHT22;29120;52.006;6.020;2023-05-07T08:28:56;17.40;99.90
43524;DHT22;29120;52.006;6.020;2023-05-07T08:31:21;17.50;99.90
43524;DHT22;29120;52.006;6.020;2023-05-07T08:33:47;17.60;99.90
43524;DHT22;29120;52.006;6.020;2023-05-07T08:36:12;17.70;99.90
43524;DHT22;29120;52.006;6.020;2023-05-07T08:38:37;17.70;99.90
43524;DHT22;29120;52.006;6.020;2023-05-07T08:41:05;17.80;99.90
43524;DHT22;29120;52.006;6.020;2023-05-07T08:43:32;17.80;99.90
43524;DHT22;29120;52.006;6.020;2023-05-07T08:45:58;17.80;99.90
43524;DHT22;29120;52.006;6.020;2023-05-07T08:48:26;17.90;99.90
43524;DHT22;29120;52.006;6.020;2023-05-07T08:50:52;17.90;99.90
43524;DHT22;29120;52.006;6.020;2023-05-07T08:53:18;18.10;99.90
43524;DHT22;29120;52.006;6.020;2023-05-07T08:55:45;18.10;99.90
43524;DHT22;29120;52.006;6.020;2023-05-07T08:58:11;18.10;99.90
43524;DHT22;29120;52.006;6.020;2023-05-07T09:00:36;18.20;99.90
43524;DHT22;29120;52.006;6.020;2023-05-07T09:03:03;18.30;99.90
43524;DHT22;29120;52.006;6.020;2023-05-07T09:05:28;18.30;99.90
43524;DHT22;29120;52.006;6.020;2023-05-07T09:07:53;18.50;99.90
43524;DHT22;29120;52.006;6.020;2023-05-07T09:10:20;18.70;99.90
43524;DHT22;29120;52.006;6.020;2023-05-07T09:12:46;18.80;99.90
43524;DHT22;29120;52.006;6.020;2023-05-07T09:15:12;18.90;99.90
43524;DHT22;29120;52.006;6.020;2023-05-07T09:17:38;19.00;99.90
43524;DHT22;29120;52.006;6.020;2023-05-07T09:20:04;19.10;99.90
43524;DHT22;29120;52.006;6.020;2023-05-07T09:22:33;19.20;99.90
43524;DHT22;29120;52.006;6.020;2023-05-07T09:24:59;19.30;99.90
43524;DHT22;29120;52.006;6.020;2023-05-07T09:27:24;19.40;99.90
43524;DHT22;29120;52.006;6.020;2023-05-07T09:29:50;19.50;99.90
43524;DHT22;29120;52.006;6.020;2023-05-07T09:32:15;19.60;99.90
43524;DHT22;29120;52.006;6.020;2023-05-07T09:34:41;19.70;99.90
43524;DHT22;29120;52.006;6.020;2023-05-07T09:37:06;19.90;99.90
43524;DHT22;29120;52.006;6.020;2023-05-07T09:39:39;20.10;99.90
43524;DHT22;29120;52.006;6.020;2023-05-07T09:42:06;20.40;99.90
43524;DHT22;29120;52.006;6.020;2023-05-07T09:44:32;20.60;99.90
43524;DHT22;29120;52.006;6.020;2023-05-07T09:46:57;20.80;99.90
43524;DHT22;29120;52.006;6.020;2023-05-07T09:49:24;21.00;99.90
43524;DHT22;29120;52.006;6.020;2023-05-07T09:51:52;21.10;99.90
43524;DHT22;29120;52.006;6.020;2023-05-07T09:54:18;21.20;99.90
43524;DHT22;29120;52.006;6.020;2023-05-07T09:56:48;21.50;99.90
43524;DHT22;29120;52.006;6.020;2023-05-07T09:59:14;21.70;99.90
43524;DHT22;29120;52.006;6.020;2023-05-07T10:01:41;21.80;99.90
43524;DHT22;29120;52.006;6.020;2023-05-07T10:04:07;22.00;99.90
43524;DHT22;29120;52.006;6.020;2023-05-07T10:06:35;22.20;99.90
43524;DHT22;29120;52.006;6.020;2023-05-07T10:09:04;22.30;99.90
43524;DHT22;29120;52.006;6.020;2023-05-07T10:11:36;22.60;99.70
43524;DHT22;29120;52.006;6.020;2023-05-07T10:14:02;22.60;99.00
43524;DHT22;29120;52.006;6.020;2023-05-07T10:16:31;22.50;98.70
43524;DHT22;29120;52.006;6.020;2023-05-07T10:18:58;22.40;98.70
43524;DHT22;29120;52.006;6.020;2023-05-07T10:21:24;22.20;99.00
43524;DHT22;29120;52.006;6.020;2023-05-07T10:23:55;22.10;98.60
43524;DHT22;29120;52.006;6.020;2023-05-07T10:26:22;22.10;98.20
43524;DHT22;29120;52.006;6.020;2023-05-07T10:28:49;22.20;98.30
43524;DHT22;29120;52.006;6.020;2023-05-07T10:31:23;22.40;98.20
43524;DHT22;29120;52.006;6.020;2023-05-07T10:33:50;22.50;97.60
43524;DHT22;29120;52.006;6.020;2023-05-07T10:36:16;22.60;97.20
43524;DHT22;29120;52.006;6.020;2023-05-07T10:38:42;23.00;97.00
43524;DHT22;29120;52.006;6.020;2023-05-07T10:41:08;23.50;96.40
43524;DHT22;29120;52.006;6.020;2023-05-07T10:43:43;24.40;95.70
43524;DHT22;29120;52.006;6.020;2023-05-07T10:48:34;26.20;93.20
43524;DHT22;29120;52.006;6.020;2023-05-07T10:51:21;26.80;91.90
43524;DHT22;29120;52.006;6.020;2023-05-07T10:53:46;27.50;91.40
43524;DHT22;29120;52.006;6.020;2023-05-07T10:58:43;27.90;90.10
43524;DHT22;29120;52.006;6.020;2023-05-07T11:01:09;27.50;88.90
43524;DHT22;29120;52.006;6.020;2023-05-07T11:03:37;27.30;89.20
43524;DHT22;29120;52.006;6.020;2023-05-07T11:06:23;27.20;88.10
43524;DHT22;29120;52.006;6.020;2023-05-07T11:08:58;27.40;87.00
43524;DHT22;29120;52.006;6.020;2023-05-07T11:12:05;27.60;86.20
43524;DHT22;29120;52.006;6.020;2023-05-07T11:14:13;28.00;85.10
43524;DHT22;29120;52.006;6.020;2023-05-07T11:16:39;28.50;83.00
43524;DHT22;29120;52.006;6.020;2023-05-07T11:19:05;28.80;80.00
43524;DHT22;29120;52.006;6.020;2023-05-07T11:21:31;29.10;79.60
43524;DHT22;29120;52.006;6.020;2023-05-07T11:23:57;29.50;78.20
43524;DHT22;29120;52.006;6.020;2023-05-07T11:26:23;29.90;76.90
43524;DHT22;29120;52.006;6.020;2023-05-07T11:28:48;30.10;74.70
43524;DHT22;29120;52.006;6.020;2023-05-07T11:31:14;29.90;72.90
43524;DHT22;29120;52.006;6.020;2023-05-07T11:33:45;29.60;72.90
43524;DHT22;29120;52.006;6.020;2023-05-07T11:36:10;29.20;73.30
43524;DHT22;29120;52.006;6.020;2023-05-07T11:38:37;28.70;73.50
43524;DHT22;29120;52.006;6.020;2023-05-07T11:41:02;28.30;73.80
43524;DHT22;29120;52.006;6.020;2023-05-07T11:43:30;27.70;74.10
43524;DHT22;29120;52.006;6.020;2023-05-07T11:46:04;27.10;74.40
43524;DHT22;29120;52.006;6.020;2023-05-07T11:48:29;26.60;75.90
43524;DHT22;29120;52.006;6.020;2023-05-07T11:53:27;25.80;76.80
43524;DHT22;29120;52.006;6.020;2023-05-07T11:55:53;25.60;77.70
43524;DHT22;29120;52.006;6.020;2023-05-07T11:58:21;25.50;77.80
43524;DHT22;29120;52.006;6.020;2023-05-07T12:00:50;25.60;77.80
43524;DHT22;29120;52.006;6.020;2023-05-07T12:03:15;25.70;77.50
43524;DHT22;29120;52.006;6.020;2023-05-07T12:05:41;25.70;76.60
43524;DHT22;29120;52.006;6.020;2023-05-07T12:08:07;25.70;77.10
43524;DHT22;29120;52.006;6.020;2023-05-07T12:10:32;25.70;76.90
43524;DHT22;29120;52.006;6.020;2023-05-07T12:12:58;25.80;77.00
43524;DHT22;29120;52.006;6.020;2023-05-07T12:15:23;26.10;76.60
43524;DHT22;29120;52.006;6.020;2023-05-07T12:17:49;26.40;75.80
43524;DHT22;29120;52.006;6.020;2023-05-07T12:20:15;26.80;74.50
43524;DHT22;29120;52.006;6.020;2023-05-07T12:22:41;27.00;73.10
43524;DHT22;29120;52.006;6.020;2023-05-07T12:25:07;27.10;73.10
43524;DHT22;29120;52.006;6.020;2023-05-07T12:27:36;27.10;72.80
43524;DHT22;29120;52.006;6.020;2023-05-07T12:30:01;26.70;73.50
43524;DHT22;29120;52.006;6.020;2023-05-07T12:32:27;26.10;74.20
43524;DHT22;29120;52.006;6.020;2023-05-07T12:34:53;25.70;74.90
43524;DHT22;29120;52.006;6.020;2023-05-07T12:37:25;25.30;76.10
43524;DHT22;29120;52.006;6.020;2023-05-07T12:40:04;25.00;76.90
43524;DHT22;29120;52.006;6.020;2023-05-07T12:42:38;24.80;77.40
43524;DHT22;29120;52.006;6.020;2023-05-07T12:45:13;24.50;78.10
43524;DHT22;29120;52.006;6.020;2023-05-07T12:47:43;24.30;78.40
43524;DHT22;29120;52.006;6.020;2023-05-07T12:50:09;24.10;78.90
43524;DHT22;29120;52.006;6.020;2023-05-07T12:52:34;23.90;79.10
43524;DHT22;29120;52.006;6.020;2023-05-07T12:55:09;23.80;79.50
43524;DHT22;29120;52.006;6.020;2023-05-07T12:57:38;23.70;79.80
43524;DHT22;29120;52.006;6.020;2023-05-07T13:00:05;23.60;80.30
43524;DHT22;29120;52.006;6.020;2023-05-07T13:02:34;23.50;80.90
43524;DHT22;29120;52.006;6.020;2023-05-07T13:05:02;23.40;81.50
43524;DHT22;29120;52.006;6.020;2023-05-07T13:07:28;23.30;82.40
43524;DHT22;29120;52.006;6.020;2023-05-07T13:09:53;23.10;83.30
43524;DHT22;29120;52.006;6.020;2023-05-07T13:12:18;22.90;84.00
43524;DHT22;29120;52.006;6.020;2023-05-07T13:14:44;22.80;84.80
43524;DHT22;29120;52.006;6.020;2023-05-07T13:17:10;22.70;85.70
43524;DHT22;29120;52.006;6.020;2023-05-07T13:19:35;22.50;86.80
43524;DHT22;29120;52.006;6.020;2023-05-07T13:22:02;22.40;87.20
43524;DHT22;29120;52.006;6.020;2023-05-07T13:24:28;22.30;87.50
43524;DHT22;29120;52.006;6.020;2023-05-07T13:26:53;22.10;88.10
43524;DHT22;29120;52.006;6.020;2023-05-07T13:29:20;21.90;89.80
43524;DHT22;29120;52.006;6.020;2023-05-07T13:31:46;21.60;90.60
43524;DHT22;29120;52.006;6.020;2023-05-07T13:34:11;21.40;91.30
43524;DHT22;29120;52.006;6.020;2023-05-07T13:36:37;21.20;91.70
43524;DHT22;29120;52.006;6.020;2023-05-07T13:39:04;21.30;92.00
43524;DHT22;29120;52.006;6.020;2023-05-07T13:41:31;21.30;92.30
43524;DHT22;29120;52.006;6.020;2023-05-07T13:43:56;21.30;92.70
43524;DHT22;29120;52.006;6.020;2023-05-07T13:46:22;21.40;93.00
43524;DHT22;29120;52.006;6.020;2023-05-07T13:48:47;21.40;93.20
43524;DHT22;29120;52.006;6.020;2023-05-07T13:51:13;21.50;93.50
43524;DHT22;29120;52.006;6.020;2023-05-07T13:53:38;21.30;93.80
43524;DHT22;29120;52.006;6.020;2023-05-07T13:56:04;21.50;94.00
43524;DHT22;29120;52.006;6.020;2023-05-07T13:58:30;21.60;94.30
43524;DHT22;29120;52.006;6.020;2023-05-07T14:00:55;21.70;94.60
43524;DHT22;29120;52.006;6.020;2023-05-07T14:03:21;21.80;94.80
43524;DHT22;29120;52.006;6.020;2023-05-07T14:05:46;22.00;95.20
43524;DHT22;29120;52.006;6.020;2023-05-07T14:08:12;22.30;94.90
43524;DHT22;29120;52.006;6.020;2023-05-07T14:10:39;22.60;95.00
43524;DHT22;29120;52.006;6.020;2023-05-07T14:13:05;22.70;95.00
43524;DHT22;29120;52.006;6.020;2023-05-07T14:15:30;22.70;95.00
43524;DHT22;29120;52.006;6.020;2023-05-07T14:17:57;22.80;95.10
43524;DHT22;29120;52.006;6.020;2023-05-07T14:20:24;23.00;95.30
43524;DHT22;29120;52.006;6.020;2023-05-07T14:22:50;23.20;95.30
43524;DHT22;29120;52.006;6.020;2023-05-07T14:25:15;23.30;94.80
43524;DHT22;29120;52.006;6.020;2023-05-07T14:27:41;23.40;94.30
43524;DHT22;29120;52.006;6.020;2023-05-07T14:30:07;23.50;93.80
43524;DHT22;29120;52.006;6.020;2023-05-07T14:32:32;23.40;93.40
43524;DHT22;29120;52.006;6.020;2023-05-07T14:34:58;23.10;93.20
43524;DHT22;29120;52.006;6.020;2023-05-07T14:37:23;22.80;93.10
43524;DHT22;29120;52.006;6.020;2023-05-07T14:39:49;22.50;93.10
43524;DHT22;29120;52.006;6.020;2023-05-07T14:42:14;22.30;93.20
43524;DHT22;29120;52.006;6.020;2023-05-07T14:44:40;22.30;93.40
43524;DHT22;29120;52.006;6.020;2023-05-07T14:47:06;22.20;93.40
43524;DHT22;29120;52.006;6.020;2023-05-07T14:49:33;22.10;93.50
43524;DHT22;29120;52.006;6.020;2023-05-07T14:51:58;22.00;93.50
43524;DHT22;29120;52.006;6.020;2023-05-07T14:54:26;21.90;93.70
43524;DHT22;29120;52.006;6.020;2023-05-07T14:56:52;21.80;93.30
43524;DHT22;29120;52.006;6.020;2023-05-07T14:59:18;21.60;93.40
43524;DHT22;29120;52.006;6.020;2023-05-07T15:01:48;21.50;93.60
43524;DHT22;29120;52.006;6.020;2023-05-07T15:04:14;21.40;93.50
43524;DHT22;29120;52.006;6.020;2023-05-07T15:06:40;21.30;93.60
43524;DHT22;29120;52.006;6.020;2023-05-07T15:09:05;21.30;93.60
43524;DHT22;29120;52.006;6.020;2023-05-07T15:11:31;21.30;93.70
43524;DHT22;29120;52.006;6.020;2023-05-07T15:13:56;21.20;93.50
43524;DHT22;29120;52.006;6.020;2023-05-07T15:16:21;21.10;93.60
43524;DHT22;29120;52.006;6.020;2023-05-07T15:18:48;21.10;93.70
43524;DHT22;29120;52.006;6.020;2023-05-07T15:21:14;21.00;93.70
43524;DHT22;29120;52.006;6.020;2023-05-07T15:23:39;21.00;93.80
43524;DHT22;29120;52.006;6.020;2023-05-07T15:26:06;21.00;93.90
43524;DHT22;29120;52.006;6.020;2023-05-07T15:28:32;20.90;93.90
43524;DHT22;29120;52.006;6.020;2023-05-07T15:30:58;20.90;93.90